Time;durP1;ratioP1;P1;durP2;ratioP2;P2;SDS_P1;SDS_P2;PMS_P1;PMS_P2;Temp;Humidity;BMP_temperature;BMP_pressure;BME280_temperature;BME280_humidity;BME280_pressure;Samples;Min_cycle;Max_cycle;Signal;HPM_P1;HPM_P2
2021/03/07 00:00:14;;;;;;;6.57;4.50;;;5.00;99.90;;;;;;5036052;28;20959;-47
2021/03/07 00:02:43;;;;;;;7.90;3.80;;;5.00;99.90;;;;;;5036048;28;20954;-45
2021/03/07 00:05:14;;;;;;;4.70;3.37;;;5.00;99.90;;;;;;5035531;28;20508;-47
2021/03/07 00:07:43;;;;;;;5.93;3.97;;;5.00;99.90;;;;;;5035662;28;20440;-47
2021/03/07 00:10:14;;;;;;;5.23;3.73;;;4.90;99.90;;;;;;5035645;28;20550;-47
2021/03/07 00:12:42;;;;;;;10.00;5.33;;;4.90;99.90;;;;;;5035715;28;20496;-47
2021/03/07 00:15:14;;;;;;;5.93;4.67;;;4.90;99.90;;;;;;5035725;28;20437;-49
2021/03/07 00:17:42;;;;;;;4.57;4.07;;;4.90;99.90;;;;;;5034285;28;20445;-44
2021/03/07 00:20:13;;;;;;;5.63;4.40;;;4.90;99.90;;;;;;5035111;28;20934;-45
2021/03/07 00:22:42;;;;;;;7.03;3.93;;;4.90;99.90;;;;;;5034947;28;20465;-48
2021/03/07 00:25:12;;;;;;;5.60;4.40;;;4.90;99.90;;;;;;5035514;28;20516;-45
2021/03/07 00:27:41;;;;;;;5.40;3.43;;;5.00;99.90;;;;;;5036200;28;20509;-45
2021/03/07 00:30:13;;;;;;;3.50;3.20;;;4.90;99.90;;;;;;5036066;28;20556;-44
2021/03/07 00:32:43;;;;;;;5.20;3.07;;;4.90;99.90;;;;;;5036289;28;20437;-45
2021/03/07 00:35:12;;;;;;;4.40;3.50;;;5.00;99.90;;;;;;5036057;28;20425;-54
2021/03/07 00:37:40;;;;;;;10.80;4.00;;;4.90;99.90;;;;;;5036620;28;20456;-45
2021/03/07 00:40:10;;;;;;;8.70;5.40;;;4.90;99.90;;;;;;5035989;28;20862;-48
2021/03/07 00:42:41;;;;;;;5.60;3.83;;;4.90;99.90;;;;;;5035925;28;20457;-45
2021/03/07 00:45:13;;;;;;;4.83;3.57;;;4.90;99.90;;;;;;5035755;28;20457;-46
2021/03/07 00:47:41;;;;;;;5.57;4.50;;;4.80;99.90;;;;;;5035202;28;20449;-49
2021/03/07 00:50:12;;;;;;;7.60;4.43;;;4.80;99.90;;;;;;5034452;28;20548;-45
2021/03/07 00:52:41;;;;;;;4.57;3.70;;;4.90;99.90;;;;;;5033749;28;20524;-47
2021/03/07 00:55:10;;;;;;;7.40;3.70;;;4.90;99.90;;;;;;5034596;28;20868;-49
2021/03/07 00:57:38;;;;;;;9.50;5.10;;;4.80;99.90;;;;;;5034689;28;20989;-46
2021/03/07 01:00:13;;;;;;;9.60;5.93;;;4.80;99.90;;;;;;5034739;28;20453;-44
2021/03/07 01:02:41;;;;;;;10.20;5.13;;;4.80;99.90;;;;;;5033840;28;20952;-46
2021/03/07 01:05:11;;;;;;;7.77;4.77;;;4.90;99.90;;;;;;5033932;28;20477;-47
2021/03/07 01:07:39;;;;;;;10.40;5.03;;;4.90;99.90;;;;;;5034463;28;20459;-45
2021/03/07 01:10:12;;;;;;;6.17;4.50;;;5.00;99.90;;;;;;5034149;28;20544;-47
2021/03/07 01:12:41;;;;;;;5.93;5.30;;;4.90;99.90;;;;;;5033421;28;20508;-47
2021/03/07 01:15:10;;;;;;;7.47;4.60;;;4.90;99.90;;;;;;5033352;28;20495;-46
2021/03/07 01:17:40;;;;;;;11.13;4.43;;;4.90;99.90;;;;;;5034195;28;20469;-48
2021/03/07 01:20:13;;;;;;;5.10;4.43;;;4.90;99.90;;;;;;5033931;28;20449;-44
2021/03/07 01:22:41;;;;;;;5.23;4.73;;;4.90;99.90;;;;;;5034382;28;20857;-46
2021/03/07 01:25:10;;;;;;;6.10;4.10;;;4.90;99.90;;;;;;5033769;28;21009;-47
2021/03/07 01:27:39;;;;;;;11.03;5.37;;;4.90;99.90;;;;;;5033660;28;20857;-46
2021/03/07 01:30:10;;;;;;;5.73;4.40;;;4.80;99.90;;;;;;5034723;28;20848;-50
2021/03/07 01:32:39;;;;;;;7.20;5.43;;;4.90;99.90;;;;;;5039066;28;20536;-45
2021/03/07 01:35:08;;;;;;;6.80;5.40;;;4.80;99.90;;;;;;5038615;28;20467;-46
2021/03/07 01:37:37;;;;;;;5.73;4.80;;;4.70;99.90;;;;;;5038532;28;20512;-45
2021/03/07 01:40:08;;;;;;;7.43;5.70;;;4.80;99.90;;;;;;5038735;28;20488;-45
2021/03/07 01:42:37;;;;;;;7.57;5.03;;;4.80;99.90;;;;;;5039026;28;20508;-44
2021/03/07 01:45:06;;;;;;;5.70;4.70;;;4.70;99.90;;;;;;5038546;28;20472;-44
2021/03/07 01:47:35;;;;;;;8.97;5.30;;;4.80;99.90;;;;;;5038677;28;20456;-43
2021/03/07 01:50:06;;;;;;;6.67;5.97;;;4.80;99.90;;;;;;5038116;28;20821;-45
2021/03/07 01:52:34;;;;;;;5.93;4.87;;;4.80;99.90;;;;;;5037748;28;20475;-45
2021/03/07 01:55:03;;;;;;;11.27;6.07;;;4.80;99.90;;;;;;5038430;28;20448;-47
2021/03/07 01:57:32;;;;;;;10.53;5.20;;;4.80;99.90;;;;;;5037933;28;20504;-45
2021/03/07 02:00:01;;;;;;;11.63;4.23;;;4.90;99.90;;;;;;5038574;28;20429;-45
2021/03/07 02:02:29;;;;;;;6.70;4.00;;;4.70;99.90;;;;;;5038327;28;20484;-49
2021/03/07 02:04:58;;;;;;;7.93;4.93;;;4.70;99.90;;;;;;5038399;28;20478;-46
2021/03/07 02:07:27;;;;;;;9.33;5.57;;;4.70;99.90;;;;;;5037991;28;20453;-45
2021/03/07 02:09:56;;;;;;;5.90;4.83;;;4.70;99.90;;;;;;5038898;28;20564;-44
2021/03/07 02:12:25;;;;;;;5.00;3.80;;;4.60;99.90;;;;;;5039050;28;20512;-46
2021/03/07 02:14:55;;;;;;;6.93;4.43;;;4.60;99.90;;;;;;5038464;28;20444;-47
2021/03/07 02:17:24;;;;;;;4.63;3.60;;;4.60;99.90;;;;;;5038108;28;20905;-45
2021/03/07 02:19:53;;;;;;;4.90;4.00;;;4.60;99.90;;;;;;5038422;28;20962;-45
2021/03/07 02:22:29;;;;;;;7.97;3.90;;;4.50;99.90;;;;;;5037523;28;21098;-49
2021/03/07 02:24:58;;;;;;;7.57;3.80;;;4.50;99.90;;;;;;5037799;28;20437;-49
2021/03/07 02:27:27;;;;;;;6.00;3.63;;;4.50;99.90;;;;;;5037658;28;20484;-46
2021/03/07 02:29:56;;;;;;;3.80;2.90;;;4.60;99.90;;;;;;5037444;28;20520;-46
2021/03/07 02:32:26;;;;;;;5.50;3.00;;;4.50;99.90;;;;;;5038521;28;20460;-50
2021/03/07 02:34:59;;;;;;;4.77;2.83;;;4.40;99.90;;;;;;5038843;28;20468;-46
2021/03/07 02:37:28;;;;;;;4.63;2.40;;;4.30;99.90;;;;;;5038047;28;20837;-49
2021/03/07 02:39:59;;;;;;;4.00;2.10;;;4.30;99.90;;;;;;5038029;28;20476;-45
2021/03/07 02:42:29;;;;;;;5.50;3.20;;;4.30;99.90;;;;;;5037743;28;20513;-45
2021/03/07 02:45:00;;;;;;;4.37;1.77;;;4.30;99.90;;;;;;5038219;28;20520;-45
2021/03/07 02:47:31;;;;;;;2.70;1.57;;;4.30;99.90;;;;;;5038319;28;20442;-45
2021/03/07 02:50:02;;;;;;;2.20;1.97;;;4.20;99.90;;;;;;5038267;28;20461;-44
2021/03/07 02:52:31;;;;;;;3.87;2.17;;;4.20;99.90;;;;;;5038799;28;20612;-46
2021/03/07 02:55:03;;;;;;;3.97;2.10;;;4.20;99.90;;;;;;5038430;28;20513;-46
2021/03/07 02:57:32;;;;;;;3.77;2.00;;;4.20;99.90;;;;;;5038490;28;20434;-46
2021/03/07 03:00:02;;;;;;;3.73;2.00;;;4.30;99.90;;;;;;5038450;28;20517;-45
2021/03/07 03:02:32;;;;;;;1.67;1.57;;;4.30;99.90;;;;;;5038224;28;20489;-47
2021/03/07 03:05:01;;;;;;;2.57;1.47;;;4.30;99.90;;;;;;5037178;28;20453;-44
2021/03/07 03:07:31;;;;;;;2.50;1.83;;;4.30;99.90;;;;;;5037422;28;20465;-49
2021/03/07 03:10:02;;;;;;;3.77;1.67;;;4.30;99.90;;;;;;5037607;28;20479;-46
2021/03/07 03:12:37;;;;;;;2.20;1.37;;;4.30;99.90;;;;;;5037488;28;20449;-49
2021/03/07 03:15:07;;;;;;;2.23;1.50;;;4.20;99.90;;;;;;5038121;28;20526;-48
2021/03/07 03:17:36;;;;;;;1.70;1.40;;;4.10;99.90;;;;;;5038426;28;20496;-51
2021/03/07 03:20:09;;;;;;;3.37;2.77;;;4.00;99.90;;;;;;5038517;28;20463;-45
2021/03/07 03:22:38;;;;;;;2.47;1.27;;;4.10;99.90;;;;;;5038408;28;20934;-46
2021/03/07 03:25:10;;;;;;;2.60;1.37;;;4.10;99.90;;;;;;5038081;28;20551;-48
2021/03/07 03:27:39;;;;;;;4.00;1.67;;;4.10;99.90;;;;;;5038035;28;20445;-46
2021/03/07 03:30:11;;;;;;;3.67;2.07;;;4.10;99.90;;;;;;5037774;28;20945;-46
2021/03/07 03:32:39;;;;;;;2.27;1.70;;;4.10;99.90;;;;;;5038516;28;20449;-45
2021/03/07 03:35:10;;;;;;;2.77;1.60;;;4.00;99.90;;;;;;5038020;28;20473;-45
2021/03/07 03:37:39;;;;;;;1.80;1.33;;;4.10;99.90;;;;;;5038289;28;20489;-45
2021/03/07 03:40:12;;;;;;;4.13;2.20;;;4.10;99.90;;;;;;5038322;28;20433;-47
2021/03/07 03:42:41;;;;;;;3.43;1.70;;;4.10;99.90;;;;;;5038235;28;20529;-45
2021/03/07 03:45:11;;;;;;;5.30;1.70;;;4.00;99.90;;;;;;5037929;28;20821;-47
2021/03/07 03:47:46;;;;;;;3.80;1.80;;;4.00;99.90;;;;;;5038034;28;20429;-45
2021/03/07 03:50:17;;;;;;;4.83;1.83;;;4.00;99.90;;;;;;5037952;28;20886;-47
2021/03/07 03:52:48;;;;;;;3.57;2.03;;;3.90;99.90;;;;;;5037872;28;20857;-49
2021/03/07 03:55:20;;;;;;;3.90;2.53;;;3.90;99.90;;;;;;5038754;28;20464;-46
2021/03/07 03:57:52;;;;;;;3.90;1.63;;;3.80;99.90;;;;;;5038840;28;20414;-49
2021/03/07 04:00:23;;;;;;;4.30;2.30;;;3.80;99.90;;;;;;5038445;28;20439;-45
2021/03/07 04:02:53;;;;;;;3.87;2.27;;;3.80;99.90;;;;;;5038735;28;20516;-46
2021/03/07 04:05:23;;;;;;;10.13;2.67;;;3.90;99.90;;;;;;5038045;28;20433;-50
2021/03/07 04:07:52;;;;;;;4.73;1.93;;;3.90;99.90;;;;;;5037503;28;20529;-45
2021/03/07 04:10:23;;;;;;;3.90;2.30;;;3.90;99.90;;;;;;5036914;28;20825;-47
2021/03/07 04:12:52;;;;;;;5.33;2.27;;;3.90;99.90;;;;;;5037787;28;20500;-45
2021/03/07 04:15:22;;;;;;;6.97;2.30;;;4.00;99.90;;;;;;5037854;28;20508;-43
2021/03/07 04:17:53;;;;;;;9.03;2.17;;;4.00;99.90;;;;;;5037953;28;20437;-45
2021/03/07 04:20:21;;;;;;;4.70;2.57;;;3.90;99.90;;;;;;5037993;28;20476;-46
2021/03/07 04:22:51;;;;;;;3.43;2.33;;;3.80;99.90;;;;;;5038625;28;20470;-52
2021/03/07 04:25:21;;;;;;;2.90;2.13;;;3.70;99.90;;;;;;5037850;28;20520;-46
2021/03/07 04:27:50;;;;;;;4.47;2.23;;;3.60;99.90;;;;;;5037260;28;20453;-46
2021/03/07 04:30:21;;;;;;;3.67;1.67;;;3.60;99.90;;;;;;5037195;28;20453;-44
2021/03/07 04:32:50;;;;;;;3.13;1.80;;;3.70;99.90;;;;;;5037811;28;20429;-43
2021/03/07 04:35:19;;;;;;;3.47;2.27;;;3.70;99.90;;;;;;5037713;28;20520;-47
2021/03/07 04:37:48;;;;;;;4.53;1.83;;;3.60;99.90;;;;;;5036831;28;20520;-45
2021/03/07 04:40:17;;;;;;;3.13;2.10;;;3.50;99.90;;;;;;5037383;28;20437;-47
2021/03/07 04:42:47;;;;;;;5.50;2.37;;;3.50;99.90;;;;;;5036118;28;20516;-46
2021/03/07 04:45:18;;;;;;;2.77;2.00;;;3.70;99.90;;;;;;5030256;28;20479;-48
2021/03/07 04:47:46;;;;;;;2.90;1.70;;;3.60;99.90;;;;;;5028681;28;20853;-47
2021/03/07 04:50:15;;;;;;;4.33;2.47;;;3.60;99.90;;;;;;5030338;28;20483;-49
2021/03/07 04:52:44;;;;;;;3.00;2.13;;;3.40;99.90;;;;;;5012958;28;20776;-48
2021/03/07 04:55:13;;;;;;;5.03;2.33;;;3.40;99.90;;;;;;5010460;28;20793;-47
2021/03/07 04:57:42;;;;;;;4.37;2.50;;;3.30;99.90;;;;;;5011299;28;20449;-44
2021/03/07 05:00:14;;;;;;;3.73;2.47;;;3.30;99.90;;;;;;5011307;28;20450;-45
2021/03/07 05:02:42;;;;;;;4.87;2.00;;;3.30;99.90;;;;;;5009919;28;20481;-43
2021/03/07 05:05:11;;;;;;;7.03;2.50;;;3.30;99.90;;;;;;5008922;28;20454;-45
2021/03/07 05:07:39;;;;;;;3.57;2.30;;;3.20;99.90;;;;;;5009960;28;20462;-46
2021/03/07 05:10:30;;;;;;;3.00;2.20;;;3.30;99.90;;;;;;5011655;28;20505;-45
2021/03/07 05:12:59;;;;;;;5.13;2.43;;;3.20;99.90;;;;;;5012869;28;20445;-44
2021/03/07 05:15:29;;;;;;;4.30;2.50;;;3.20;99.90;;;;;;5011044;28;20893;-44
2021/03/07 05:17:57;;;;;;;4.77;2.00;;;3.20;99.90;;;;;;5012897;28;20778;-44
2021/03/07 05:20:26;;;;;;;6.47;2.53;;;3.20;99.90;;;;;;5012623;28;20886;-49
2021/03/07 05:22:54;;;;;;;4.13;1.90;;;3.30;99.90;;;;;;5012214;28;20890;-45
2021/03/07 05:25:22;;;;;;;3.57;2.20;;;3.30;99.90;;;;;;5013719;28;20457;-45
2021/03/07 05:27:50;;;;;;;5.00;2.60;;;3.30;99.90;;;;;;5013549;28;20857;-46
2021/03/07 05:30:19;;;;;;;3.47;2.00;;;3.30;99.90;;;;;;5013691;28;20481;-49
2021/03/07 05:32:49;;;;;;;12.93;2.13;;;3.30;99.90;;;;;;5013555;28;20814;-44
2021/03/07 05:35:17;;;;;;;3.30;2.33;;;3.20;99.90;;;;;;5013778;28;20846;-47
2021/03/07 05:37:45;;;;;;;4.57;1.87;;;3.20;99.90;;;;;;5014390;28;20970;-44
2021/03/07 05:40:13;;;;;;;3.80;2.07;;;3.20;99.90;;;;;;5014176;28;20736;-46
2021/03/07 05:42:42;;;;;;;6.23;2.13;;;3.20;99.90;;;;;;5013565;28;20828;-44
2021/03/07 05:45:12;;;;;;;6.43;2.37;;;3.20;99.90;;;;;;5013626;28;20464;-45
2021/03/07 05:47:40;;;;;;;7.63;2.07;;;3.20;99.90;;;;;;5013592;28;20787;-44
2021/03/07 05:50:11;;;;;;;4.40;2.13;;;3.20;99.90;;;;;;5013426;28;20791;-46
2021/03/07 05:52:40;;;;;;;2.93;1.90;;;3.20;99.90;;;;;;5013605;28;20469;-45
2021/03/07 05:55:10;;;;;;;2.43;1.87;;;3.20;99.90;;;;;;5013253;28;20790;-44
2021/03/07 05:57:39;;;;;;;3.03;1.80;;;3.20;99.90;;;;;;5013306;28;20469;-45
2021/03/07 06:00:08;;;;;;;3.70;2.07;;;3.20;99.90;;;;;;5013388;28;20794;-45
2021/03/07 06:02:36;;;;;;;3.10;2.20;;;3.20;99.90;;;;;;5013429;28;20781;-45
2021/03/07 06:05:06;;;;;;;1.93;1.60;;;3.30;99.90;;;;;;5013323;28;20774;-45
2021/03/07 06:07:35;;;;;;;3.93;1.90;;;3.30;99.90;;;;;;5013409;28;20794;-44
2021/03/07 06:10:16;;;;;;;3.60;1.70;;;3.30;99.90;;;;;;5013772;28;20786;-46
2021/03/07 06:12:55;;;;;;;2.87;1.90;;;3.20;99.90;;;;;;5014452;28;20480;-43
2021/03/07 06:15:24;;;;;;;3.60;1.70;;;3.20;99.90;;;;;;5014574;28;20775;-54
2021/03/07 06:17:52;;;;;;;1.57;1.20;;;3.20;99.90;;;;;;5017665;28;20579;-48
2021/03/07 06:20:22;;;;;;;5.73;2.20;;;3.20;99.90;;;;;;5016849;28;20822;-49
2021/03/07 06:22:55;;;;;;;2.30;1.60;;;3.30;99.90;;;;;;5016813;28;20774;-44
2021/03/07 06:25:24;;;;;;;8.40;2.37;;;3.30;99.90;;;;;;5016900;28;20831;-49
2021/03/07 06:27:53;;;;;;;6.10;3.77;;;3.30;99.90;;;;;;5016755;28;20779;-45
2021/03/07 06:30:24;;;;;;;4.80;2.10;;;3.40;99.90;;;;;;5016680;28;20812;-46
2021/03/07 06:32:54;;;;;;;5.77;1.50;;;3.40;99.90;;;;;;5016382;28;20929;-45
2021/03/07 06:35:23;;;;;;;2.50;1.70;;;3.40;99.90;;;;;;5020722;28;21022;-47
2021/03/07 06:38:04;;;;;;;4.90;1.90;;;3.40;99.90;;;;;;5029188;28;20918;-45
2021/03/07 06:40:33;;;;;;;2.57;1.83;;;3.50;99.90;;;;;;5038510;28;20444;-44
2021/03/07 06:43:03;;;;;;;4.43;2.50;;;3.50;99.90;;;;;;5053514;28;20476;-46
2021/03/07 06:45:39;;;;;;;1.60;1.30;;;3.40;99.90;;;;;;5033086;28;20473;-45
2021/03/07 06:48:08;;;;;;;2.10;1.40;;;3.50;99.90;;;;;;5038057;28;20429;-44
2021/03/07 06:50:37;;;;;;;4.13;1.77;;;3.60;99.90;;;;;;5030324;28;20481;-47
2021/03/07 06:53:07;;;;;;;4.10;1.87;;;3.60;99.90;;;;;;5032654;28;20437;-46
2021/03/07 06:55:44;;;;;;;3.37;1.83;;;3.50;99.90;;;;;;5016735;28;21025;-47
2021/03/07 06:58:19;;;;;;;3.37;1.70;;;3.40;99.90;;;;;;5015422;28;20451;-45
2021/03/07 07:00:47;;;;;;;3.50;1.80;;;3.30;99.90;;;;;;5049597;28;20827;-48
2021/03/07 07:03:16;;;;;;;3.30;1.40;;;3.30;99.90;;;;;;5049856;28;20804;-47
2021/03/07 07:05:46;;;;;;;2.17;1.90;;;3.30;99.90;;;;;;5045086;28;20804;-47
2021/03/07 07:08:18;;;;;;;2.17;1.33;;;3.20;99.90;;;;;;5044260;28;20792;-45
2021/03/07 07:11:04;;;;;;;3.30;1.47;;;3.20;99.90;;;;;;5052995;28;20852;-47
2021/03/07 07:13:42;;;;;;;1.73;1.33;;;3.30;99.90;;;;;;5047825;28;20496;-46
2021/03/07 07:16:12;;;;;;;3.73;2.20;;;3.30;99.90;;;;;;5045126;28;20754;-44
2021/03/07 07:18:42;;;;;;;8.83;1.60;;;3.30;99.90;;;;;;5026844;28;20801;-45
2021/03/07 07:21:12;;;;;;;3.20;1.97;;;3.40;99.90;;;;;;5024478;28;20902;-47
2021/03/07 07:23:42;;;;;;;1.73;1.30;;;3.40;99.90;;;;;;5023933;28;20783;-47
2021/03/07 07:26:11;;;;;;;3.30;1.50;;;3.40;99.90;;;;;;5024464;28;20461;-46
2021/03/07 07:28:39;;;;;;;1.60;1.17;;;3.40;99.90;;;;;;5025223;28;20544;-45
2021/03/07 07:31:13;;;;;;;2.30;1.60;;;3.40;99.90;;;;;;5026376;28;20787;-44
2021/03/07 07:33:49;;;;;;;2.80;1.77;;;3.30;99.90;;;;;;5032770;28;20481;-48
2021/03/07 07:36:25;;;;;;;2.57;1.60;;;3.40;99.90;;;;;;5034450;28;20444;-48
2021/03/07 07:38:57;;;;;;;3.43;2.30;;;3.40;99.90;;;;;;5032299;28;20445;-46
2021/03/07 07:41:34;;;;;;;3.07;1.70;;;3.40;99.90;;;;;;5033001;28;20519;-54
2021/03/07 07:44:05;;;;;;;1.60;1.43;;;3.40;99.90;;;;;;5034186;28;20515;-46
2021/03/07 07:46:34;;;;;;;2.27;1.70;;;3.40;99.90;;;;;;5033707;28;20467;-47
2021/03/07 07:49:02;;;;;;;2.93;1.73;;;3.50;99.90;;;;;;5032537;28;20545;-43
2021/03/07 07:51:38;;;;;;;3.27;2.07;;;3.50;99.90;;;;;;5033214;28;21142;-44
2021/03/07 07:54:09;;;;;;;3.80;1.40;;;3.50;99.90;;;;;;5032281;28;20449;-46
2021/03/07 07:56:42;;;;;;;6.70;2.03;;;3.50;99.90;;;;;;5033236;28;20476;-47
2021/03/07 07:59:12;;;;;;;3.17;1.70;;;3.50;99.90;;;;;;5033672;28;20445;-47
2021/03/07 08:01:58;;;;;;;5.00;1.93;;;3.50;99.90;;;;;;5034789;28;20445;-44
2021/03/07 08:04:40;;;;;;;2.27;1.70;;;3.50;99.90;;;;;;5034184;28;20516;-50
2021/03/07 08:07:10;;;;;;;4.70;2.37;;;3.50;99.90;;;;;;5034245;28;20890;-47
2021/03/07 08:09:42;;;;;;;3.47;2.03;;;3.60;99.90;;;;;;5031990;28;20466;-45
2021/03/07 08:12:52;;;;;;;4.13;1.83;;;3.60;99.90;;;;;;5030646;28;20805;-45
2021/03/07 08:15:49;;;;;;;6.60;1.87;;;3.70;99.90;;;;;;4987682;28;20483;-45
2021/03/07 08:18:22;;;;;;;3.70;2.00;;;3.70;99.90;;;;;;5033001;28;20465;-47
2021/03/07 08:21:07;;;;;;;4.30;2.60;;;3.70;99.90;;;;;;5033096;28;20445;-44
2021/03/07 08:23:55;;;;;;;4.80;2.60;;;3.70;99.90;;;;;;5033325;28;20536;-46
2021/03/07 08:26:26;;;;;;;2.83;2.33;;;3.70;99.90;;;;;;5033952;28;20463;-45
2021/03/07 08:28:55;;;;;;;4.77;2.60;;;3.70;99.90;;;;;;5034079;28;20832;-47
2021/03/07 08:31:37;;;;;;;5.33;2.27;;;3.70;99.90;;;;;;5031751;28;20473;-49
2021/03/07 08:34:25;;;;;;;5.23;2.40;;;3.80;99.90;;;;;;5031969;28;20477;-45
2021/03/07 08:37:01;;;;;;;2.67;1.90;;;3.80;99.90;;;;;;5031846;28;20890;-45
2021/03/07 08:39:32;;;;;;;3.03;1.40;;;3.80;99.90;;;;;;5030574;28;20460;-46
2021/03/07 08:42:02;;;;;;;2.00;1.70;;;3.90;99.90;;;;;;5031716;28;20869;-47
2021/03/07 08:44:32;;;;;;;3.60;2.50;;;3.90;99.90;;;;;;5033458;28;20453;-44
2021/03/07 08:47:02;;;;;;;2.57;1.80;;;3.90;99.90;;;;;;5033165;28;20512;-44
2021/03/07 08:49:32;;;;;;;2.40;1.73;;;3.90;99.90;;;;;;5031920;28;20465;-44
2021/03/07 08:52:06;;;;;;;10.30;2.03;;;3.90;99.90;;;;;;5031650;28;20515;-47
2021/03/07 08:54:36;;;;;;;2.90;1.33;;;3.80;99.90;;;;;;5033961;28;20747;-45
2021/03/07 08:57:10;;;;;;;3.07;2.10;;;3.80;99.90;;;;;;5033152;28;20436;-44
2021/03/07 08:59:38;;;;;;;2.50;2.00;;;3.80;99.90;;;;;;5033630;28;20978;-49
2021/03/07 09:02:07;;;;;;;4.47;2.23;;;3.80;99.90;;;;;;5033337;28;20524;-48
2021/03/07 09:04:37;;;;;;;1.93;1.23;;;3.80;99.90;;;;;;5033992;28;20459;-45
2021/03/07 09:07:05;;;;;;;1.63;1.40;;;3.70;99.90;;;;;;5032561;28;20469;-44
2021/03/07 09:09:35;;;;;;;3.40;2.50;;;3.80;99.90;;;;;;5032290;28;20552;-45
2021/03/07 09:12:05;;;;;;;5.97;2.53;;;3.80;99.90;;;;;;5029658;28;20468;-46
2021/03/07 09:14:37;;;;;;;2.90;2.00;;;3.90;99.90;;;;;;5028583;28;20453;-46
2021/03/07 09:17:07;;;;;;;4.80;2.87;;;3.90;99.90;;;;;;5028891;28;20453;-46
2021/03/07 09:19:37;;;;;;;3.10;2.20;;;4.00;99.90;;;;;;5031396;28;20846;-44
2021/03/07 09:22:19;;;;;;;3.60;2.03;;;4.00;99.90;;;;;;5032004;28;20450;-45
2021/03/07 09:25:00;;;;;;;4.07;2.20;;;3.90;99.90;;;;;;5031594;28;20448;-45
2021/03/07 09:27:30;;;;;;;4.60;2.90;;;4.00;99.90;;;;;;5031328;28;20901;-47
2021/03/07 09:30:06;;;;;;;4.63;2.50;;;4.00;99.90;;;;;;5030095;28;20995;-49
2021/03/07 09:32:37;;;;;;;11.40;2.20;;;4.00;99.90;;;;;;5027745;28;20502;-46
2021/03/07 09:35:21;;;;;;;2.97;2.00;;;4.10;99.90;;;;;;5028361;28;20542;-45
2021/03/07 09:38:01;;;;;;;2.80;2.20;;;4.10;99.90;;;;;;5030759;28;20953;-48
2021/03/07 09:40:33;;;;;;;6.50;1.93;;;4.10;99.90;;;;;;5031359;28;20905;-48
2021/03/07 09:43:02;;;;;;;4.43;2.10;;;4.10;99.90;;;;;;5031993;28;20832;-45
2021/03/07 09:45:34;;;;;;;2.60;2.20;;;4.00;99.90;;;;;;5030172;28;20457;-46
2021/03/07 09:48:03;;;;;;;5.33;3.80;;;4.10;99.90;;;;;;5030570;28;20475;-50
2021/03/07 09:50:32;;;;;;;9.23;3.40;;;4.10;99.90;;;;;;5030314;28;20862;-50
2021/03/07 09:53:01;;;;;;;6.10;2.10;;;4.10;99.90;;;;;;5033021;28;20520;-51
2021/03/07 09:55:34;;;;;;;9.03;3.07;;;4.20;99.90;;;;;;5031900;28;20548;-50
2021/03/07 09:58:04;;;;;;;5.20;2.47;;;4.20;99.90;;;;;;5034083;28;20484;-48
2021/03/07 10:00:35;;;;;;;3.77;3.07;;;4.20;99.90;;;;;;5035153;28;20445;-45
2021/03/07 10:05:35;;;;;;;4.53;2.47;;;4.20;99.90;;;;;;4972465;29;20496;-45
2021/03/07 10:08:22;;;;;;;4.37;3.07;;;4.20;99.90;;;;;;4974518;29;20466;-46
2021/03/07 10:10:50;;;;;;;5.47;3.30;;;4.30;99.90;;;;;;4975532;29;20481;-45
2021/03/07 10:13:19;;;;;;;3.00;2.70;;;4.20;99.90;;;;;;4974911;29;21008;-45
2021/03/07 10:15:49;;;;;;;8.13;2.53;;;4.20;99.90;;;;;;4973902;29;20451;-47
2021/03/07 10:18:20;;;;;;;3.73;2.93;;;4.30;99.90;;;;;;4976242;29;20443;-48
2021/03/07 10:20:50;;;;;;;6.57;3.03;;;4.20;99.90;;;;;;4973740;29;20886;-45
2021/03/07 10:23:19;;;;;;;3.27;2.60;;;4.30;99.90;;;;;;4975238;29;20455;-46
2021/03/07 10:25:49;;;;;;;5.33;2.83;;;4.20;99.90;;;;;;4974780;29;20456;-46
2021/03/07 10:28:23;;;;;;;3.83;2.73;;;4.20;99.90;;;;;;4975403;29;20452;-47
2021/03/07 10:30:56;;;;;;;5.77;2.87;;;4.20;99.90;;;;;;4975272;29;20474;-46
2021/03/07 10:33:27;;;;;;;8.40;3.17;;;4.20;99.90;;;;;;4973107;29;20483;-45
2021/03/07 10:36:08;;;;;;;4.33;2.80;;;4.20;99.90;;;;;;4974777;29;20495;-47
2021/03/07 10:38:37;;;;;;;5.93;2.90;;;4.20;99.90;;;;;;4975711;29;20526;-46
2021/03/07 10:41:22;;;;;;;5.53;2.70;;;4.20;99.90;;;;;;4973135;29;20475;-44
2021/03/07 10:43:52;;;;;;;3.43;2.67;;;4.20;99.90;;;;;;4974009;29;20456;-47
2021/03/07 10:46:30;;;;;;;3.33;2.77;;;4.20;99.90;;;;;;4976268;29;20458;-45
2021/03/07 10:49:00;;;;;;;8.27;3.00;;;4.20;99.90;;;;;;4974916;29;20830;-47
2021/03/07 10:51:29;;;;;;;4.40;3.47;;;4.20;99.90;;;;;;4973636;29;20489;-48
2021/03/07 10:53:59;;;;;;;4.90;2.90;;;4.20;99.90;;;;;;4971180;29;20471;-46
2021/03/07 10:56:30;;;;;;;5.50;3.13;;;4.30;99.90;;;;;;4972238;29;20498;-46
2021/03/07 10:58:59;;;;;;;4.90;3.07;;;4.30;99.90;;;;;;4975473;29;20486;-47
2021/03/07 11:01:29;;;;;;;7.27;2.97;;;4.30;99.90;;;;;;4976005;28;20778;-47
2021/03/07 11:03:57;;;;;;;4.87;2.90;;;4.30;99.90;;;;;;4973133;29;20555;-45
2021/03/07 11:06:26;;;;;;;5.80;3.03;;;4.30;99.90;;;;;;4974307;29;20466;-46
2021/03/07 11:08:55;;;;;;;9.57;3.07;;;4.30;99.90;;;;;;4972866;29;20462;-47
2021/03/07 11:11:23;;;;;;;4.60;3.20;;;4.30;99.90;;;;;;4975952;29;20965;-46
2021/03/07 11:13:51;;;;;;;4.63;3.30;;;4.20;99.90;;;;;;4975007;29;20483;-48
2021/03/07 11:16:19;;;;;;;4.77;2.87;;;4.20;99.90;;;;;;4975713;29;20527;-47
2021/03/07 11:18:49;;;;;;;4.73;3.30;;;4.10;99.90;;;;;;4976457;29;20483;-45
2021/03/07 11:21:17;;;;;;;7.13;3.57;;;4.20;99.90;;;;;;4975312;29;20933;-47
2021/03/07 11:23:46;;;;;;;4.40;2.93;;;4.20;99.90;;;;;;4973432;29;20456;-48
2021/03/07 11:26:14;;;;;;;4.40;2.87;;;4.30;99.90;;;;;;4973255;29;20460;-48
2021/03/07 11:28:42;;;;;;;4.63;3.17;;;4.20;99.90;;;;;;4970546;29;20456;-47
2021/03/07 11:31:11;;;;;;;15.60;4.60;;;4.30;99.90;;;;;;4970434;29;20476;-47
2021/03/07 11:33:39;;;;;;;5.63;3.17;;;4.40;99.90;;;;;;4971386;29;20455;-47
2021/03/07 11:36:10;;;;;;;6.93;3.10;;;4.40;99.90;;;;;;4971829;29;20463;-44
2021/03/07 11:38:39;;;;;;;5.13;3.50;;;4.40;99.90;;;;;;4972050;29;20527;-44
2021/03/07 11:41:08;;;;;;;7.53;3.07;;;4.40;99.90;;;;;;4972295;29;20893;-47
2021/03/07 11:43:37;;;;;;;5.83;3.20;;;4.40;99.90;;;;;;4973925;29;20988;-46
2021/03/07 11:46:06;;;;;;;4.93;3.00;;;4.40;99.90;;;;;;4973787;29;20872;-47
2021/03/07 11:48:34;;;;;;;3.43;3.10;;;4.40;99.90;;;;;;4972841;29;20462;-47
2021/03/07 11:51:03;;;;;;;3.57;2.67;;;4.40;99.90;;;;;;4974032;29;20551;-48
2021/03/07 11:53:32;;;;;;;4.70;3.53;;;4.40;99.90;;;;;;4974806;29;20515;-46
2021/03/07 11:56:01;;;;;;;3.50;2.43;;;4.40;99.90;;;;;;4974572;29;20780;-46
2021/03/07 11:58:29;;;;;;;5.10;3.00;;;4.40;99.90;;;;;;4973398;29;20448;-45
2021/03/07 12:00:58;;;;;;;3.33;3.00;;;4.40;99.90;;;;;;4970172;29;20464;-45
2021/03/07 12:03:26;;;;;;;6.13;3.63;;;4.40;99.90;;;;;;4972127;29;20479;-46
2021/03/07 12:05:55;;;;;;;4.87;3.03;;;4.40;99.90;;;;;;4972332;29;20452;-46
2021/03/07 12:08:24;;;;;;;3.40;2.70;;;4.50;99.90;;;;;;4972712;29;20475;-47
2021/03/07 12:10:53;;;;;;;4.50;3.10;;;4.50;99.90;;;;;;4973989;29;20487;-45
2021/03/07 12:13:22;;;;;;;5.13;3.80;;;4.50;99.90;;;;;;4972079;28;20448;-48
2021/03/07 12:15:53;;;;;;;6.67;3.73;;;4.40;99.90;;;;;;4970258;29;20532;-47
2021/03/07 12:18:21;;;;;;;5.47;3.93;;;4.50;99.90;;;;;;4970031;29;20876;-48
2021/03/07 12:20:50;;;;;;;4.50;3.23;;;4.50;99.90;;;;;;4968487;29;20486;-49
2021/03/07 12:23:18;;;;;;;6.47;3.77;;;4.60;99.90;;;;;;4967919;29;20452;-47
2021/03/07 12:25:48;;;;;;;6.80;3.60;;;4.60;99.90;;;;;;4968697;28;20468;-46
2021/03/07 12:28:18;;;;;;;8.93;3.80;;;4.60;99.90;;;;;;4982797;28;20794;-46
2021/03/07 12:30:46;;;;;;;3.77;2.80;;;4.60;99.90;;;;;;4968370;29;20791;-47
2021/03/07 12:33:15;;;;;;;6.20;3.83;;;4.60;99.90;;;;;;4967640;28;20453;-49
2021/03/07 12:35:43;;;;;;;3.90;3.13;;;4.50;99.90;;;;;;4950501;29;20459;-44
2021/03/07 12:38:12;;;;;;;13.23;4.67;;;4.50;99.90;;;;;;4960213;29;20534;-46
2021/03/07 12:40:40;;;;;;;6.00;3.70;;;4.60;99.90;;;;;;4968473;29;20456;-46
2021/03/07 12:43:09;;;;;;;6.17;4.57;;;4.70;99.90;;;;;;4974015;28;20776;-44
2021/03/07 12:45:39;;;;;;;6.60;4.00;;;4.60;99.90;;;;;;4964668;29;20452;-47
2021/03/07 12:48:09;;;;;;;6.30;4.97;;;4.50;99.90;;;;;;4971843;29;20936;-46
2021/03/07 12:50:38;;;;;;;7.53;4.17;;;4.50;99.90;;;;;;4972052;29;20448;-48
2021/03/07 12:53:07;;;;;;;4.97;3.93;;;4.50;99.90;;;;;;4959036;29;20447;-51
2021/03/07 12:55:37;;;;;;;8.03;3.33;;;4.50;99.90;;;;;;4976285;28;20927;-47
2021/03/07 12:58:06;;;;;;;5.30;3.90;;;4.50;99.90;;;;;;4981468;28;20467;-47
2021/03/07 13:00:34;;;;;;;6.50;4.00;;;4.40;99.90;;;;;;4987943;28;20842;-49
2021/03/07 13:03:04;;;;;;;6.40;3.93;;;4.40;99.90;;;;;;4988751;28;21009;-46
2021/03/07 13:05:41;;;;;;;8.60;5.60;;;4.50;99.90;;;;;;4973739;28;21009;-46
2021/03/07 13:08:10;;;;;;;10.60;4.00;;;4.50;99.90;;;;;;4970473;28;20808;-46
2021/03/07 13:10:38;;;;;;;8.77;4.00;;;4.50;99.90;;;;;;4976023;28;20510;-46
2021/03/07 13:13:07;;;;;;;13.77;3.90;;;4.40;99.90;;;;;;4972492;28;20773;-48
2021/03/07 13:15:36;;;;;;;6.20;3.70;;;4.40;99.90;;;;;;4962564;28;20841;-48